sensor_id;sensor_type;location;lat;lon;timestamp;temperature;humidity
148;DHT22;142;50.652;12.216;2022-09-01T00:01:35;15.40;68.80
148;DHT22;142;50.652;12.216;2022-09-01T00:04:04;15.40;69.10
148;DHT22;142;50.652;12.216;2022-09-01T00:06:33;15.30;69.30
148;DHT22;142;50.652;12.216;2022-09-01T00:09:03;15.30;68.50
148;DHT22;142;50.652;12.216;2022-09-01T00:11:31;15.30;68.50
148;DHT22;142;50.652;12.216;2022-09-01T00:14:00;15.30;68.50
148;DHT22;142;50.652;12.216;2022-09-01T00:16:29;15.30;68.50
148;DHT22;142;50.652;12.216;2022-09-01T00:18:56;15.20;68.50
148;DHT22;142;50.652;12.216;2022-09-01T00:21:26;15.20;68.70
148;DHT22;142;50.652;12.216;2022-09-01T00:23:54;15.20;68.70
148;DHT22;142;50.652;12.216;2022-09-01T00:26:22;15.20;68.70
148;DHT22;142;50.652;12.216;2022-09-01T00:28:49;15.10;68.50
148;DHT22;142;50.652;12.216;2022-09-01T00:31:18;15.00;68.40
148;DHT22;142;50.652;12.216;2022-09-01T00:33:48;14.90;68.70
148;DHT22;142;50.652;12.216;2022-09-01T00:36:16;14.90;68.90
148;DHT22;142;50.652;12.216;2022-09-01T00:38:43;14.90;69.00
148;DHT22;142;50.652;12.216;2022-09-01T00:41:12;14.90;69.00
148;DHT22;142;50.652;12.216;2022-09-01T00:43:41;14.80;68.70
148;DHT22;142;50.652;12.216;2022-09-01T00:46:12;14.80;69.10
148;DHT22;142;50.652;12.216;2022-09-01T00:48:40;14.80;69.10
148;DHT22;142;50.652;12.216;2022-09-01T00:51:10;14.80;69.10
148;DHT22;142;50.652;12.216;2022-09-01T00:53:40;14.80;69.10
148;DHT22;142;50.652;12.216;2022-09-01T00:56:11;14.80;69.10
148;DHT22;142;50.652;12.216;2022-09-01T00:58:39;14.80;69.10
148;DHT22;142;50.652;12.216;2022-09-01T01:01:08;14.70;68.90
148;DHT22;142;50.652;12.216;2022-09-01T01:03:36;14.70;69.00
148;DHT22;142;50.652;12.216;2022-09-01T01:06:05;14.70;69.10
148;DHT22;142;50.652;12.216;2022-09-01T01:08:37;14.60;69.20
148;DHT22;142;50.652;12.216;2022-09-01T01:11:08;14.60;69.10
148;DHT22;142;50.652;12.216;2022-09-01T01:13:49;14.50;69.10
148;DHT22;142;50.652;12.216;2022-09-01T01:16:17;14.50;69.30
148;DHT22;142;50.652;12.216;2022-09-01T01:18:44;14.40;69.20
148;DHT22;142;50.652;12.216;2022-09-01T01:21:17;14.40;69.30
148;DHT22;142;50.652;12.216;2022-09-01T01:24:08;14.30;69.20
148;DHT22;142;50.652;12.216;2022-09-01T01:26:37;14.30;69.70
148;DHT22;142;50.652;12.216;2022-09-01T01:29:05;14.30;69.80
148;DHT22;142;50.652;12.216;2022-09-01T01:31:34;14.30;69.70
148;DHT22;142;50.652;12.216;2022-09-01T01:34:03;14.30;69.70
148;DHT22;142;50.652;12.216;2022-09-01T01:36:34;14.30;69.80
148;DHT22;142;50.652;12.216;2022-09-01T01:39:04;14.20;69.80
148;DHT22;142;50.652;12.216;2022-09-01T01:41:33;14.20;69.70
148;DHT22;142;50.652;12.216;2022-09-01T01:44:03;14.10;69.60
148;DHT22;142;50.652;12.216;2022-09-01T01:46:32;14.10;69.90
148;DHT22;142;50.652;12.216;2022-09-01T01:49:01;14.10;69.90
148;DHT22;142;50.652;12.216;2022-09-01T01:51:29;14.20;70.00
148;DHT22;142;50.652;12.216;2022-09-01T01:53:58;14.20;69.80
148;DHT22;142;50.652;12.216;2022-09-01T01:56:26;14.10;69.90
148;DHT22;142;50.652;12.216;2022-09-01T01:58:55;14.10;70.00
148;DHT22;142;50.652;12.216;2022-09-01T02:01:26;14.10;69.90
148;DHT22;142;50.652;12.216;2022-09-01T02:03:55;14.00;70.00
148;DHT22;142;50.652;12.216;2022-09-01T02:06:23;14.00;70.10
148;DHT22;142;50.652;12.216;2022-09-01T02:08:53;14.00;70.40
148;DHT22;142;50.652;12.216;2022-09-01T02:11:23;14.00;70.40
148;DHT22;142;50.652;12.216;2022-09-01T02:13:50;14.00;70.50
148;DHT22;142;50.652;12.216;2022-09-01T02:16:23;14.10;70.60
148;DHT22;142;50.652;12.216;2022-09-01T02:18:51;14.10;70.50
148;DHT22;142;50.652;12.216;2022-09-01T02:21:20;14.10;70.40
148;DHT22;142;50.652;12.216;2022-09-01T02:23:49;14.00;70.20
148;DHT22;142;50.652;12.216;2022-09-01T02:26:26;13.90;70.50
148;DHT22;142;50.652;12.216;2022-09-01T02:28:56;13.90;70.60
148;DHT22;142;50.652;12.216;2022-09-01T02:31:28;13.90;70.70
148;DHT22;142;50.652;12.216;2022-09-01T02:33:56;13.90;70.80
148;DHT22;142;50.652;12.216;2022-09-01T02:36:25;13.90;71.00
148;DHT22;142;50.652;12.216;2022-09-01T02:38:53;14.00;71.00
148;DHT22;142;50.652;12.216;2022-09-01T02:41:21;13.90;70.90
148;DHT22;142;50.652;12.216;2022-09-01T02:43:51;13.90;70.70
148;DHT22;142;50.652;12.216;2022-09-01T02:46:18;13.90;70.80
148;DHT22;142;50.652;12.216;2022-09-01T02:48:49;13.90;70.70
148;DHT22;142;50.652;12.216;2022-09-01T02:51:18;13.80;70.60
148;DHT22;142;50.652;12.216;2022-09-01T02:53:46;13.80;70.70
148;DHT22;142;50.652;12.216;2022-09-01T02:56:17;13.80;70.90
148;DHT22;142;50.652;12.216;2022-09-01T02:58:45;13.80;70.90
148;DHT22;142;50.652;12.216;2022-09-01T03:01:14;13.80;70.70
148;DHT22;142;50.652;12.216;2022-09-01T03:03:52;13.80;70.70
148;DHT22;142;50.652;12.216;2022-09-01T03:06:20;13.70;70.70
148;DHT22;142;50.652;12.216;2022-09-01T03:08:49;13.70;70.80
148;DHT22;142;50.652;12.216;2022-09-01T03:11:17;13.70;70.90
148;DHT22;142;50.652;12.216;2022-09-01T03:13:44;13.70;70.80
148;DHT22;142;50.652;12.216;2022-09-01T03:16:11;13.70;70.80
148;DHT22;142;50.652;12.216;2022-09-01T03:18:39;13.70;70.70
148;DHT22;142;50.652;12.216;2022-09-01T03:21:10;13.60;70.70
148;DHT22;142;50.652;12.216;2022-09-01T03:23:41;13.60;70.70
148;DHT22;142;50.652;12.216;2022-09-01T03:26:09;13.50;70.90
148;DHT22;142;50.652;12.216;2022-09-01T03:28:36;13.50;71.00
148;DHT22;142;50.652;12.216;2022-09-01T03:31:04;13.50;71.10
148;DHT22;142;50.652;12.216;2022-09-01T03:33:32;13.50;71.00
148;DHT22;142;50.652;12.216;2022-09-01T03:36:01;13.30;71.10
148;DHT22;142;50.652;12.216;2022-09-01T03:38:30;13.30;71.60
148;DHT22;142;50.652;12.216;2022-09-01T03:41:00;13.30;71.80
148;DHT22;142;50.652;12.216;2022-09-01T03:43:28;13.30;72.10
148;DHT22;142;50.652;12.216;2022-09-01T03:45:56;13.40;72.20
148;DHT22;142;50.652;12.216;2022-09-01T03:48:26;13.30;72.10
148;DHT22;142;50.652;12.216;2022-09-01T03:50:54;13.30;72.10
148;DHT22;142;50.652;12.216;2022-09-01T03:53:22;13.30;72.30
148;DHT22;142;50.652;12.216;2022-09-01T03:55:53;13.40;72.30
148;DHT22;142;50.652;12.216;2022-09-01T03:58:23;13.40;72.10
148;DHT22;142;50.652;12.216;2022-09-01T04:00:52;13.30;71.90
148;DHT22;142;50.652;12.216;2022-09-01T04:03:21;13.30;71.90
148;DHT22;142;50.652;12.216;2022-09-01T04:05:50;13.30;71.70
148;DHT22;142;50.652;12.216;2022-09-01T04:08:19;13.30;71.90
148;DHT22;142;50.652;12.216;2022-09-01T04:10:49;13.30;71.90
148;DHT22;142;50.652;12.216;2022-09-01T04:13:21;13.20;71.80
148;DHT22;142;50.652;12.216;2022-09-01T04:15:48;13.20;71.80
148;DHT22;142;50.652;12.216;2022-09-01T04:18:16;13.10;71.60
148;DHT22;142;50.652;12.216;2022-09-01T04:20:47;13.10;71.80
148;DHT22;142;50.652;12.216;2022-09-01T04:23:16;13.10;71.70
148;DHT22;142;50.652;12.216;2022-09-01T04:25:47;13.10;71.90
148;DHT22;142;50.652;12.216;2022-09-01T04:28:16;13.10;71.60
148;DHT22;142;50.652;12.216;2022-09-01T04:30:52;13.00;71.90
148;DHT22;142;50.652;12.216;2022-09-01T04:33:22;13.10;72.10
148;DHT22;142;50.652;12.216;2022-09-01T04:35:51;13.10;72.10
148;DHT22;142;50.652;12.216;2022-09-01T04:38:22;13.10;72.00
148;DHT22;142;50.652;12.216;2022-09-01T04:40:50;13.20;72.20
148;DHT22;142;50.652;12.216;2022-09-01T04:43:17;13.20;72.30
148;DHT22;142;50.652;12.216;2022-09-01T04:45:45;13.30;72.00
148;DHT22;142;50.652;12.216;2022-09-01T04:48:17;13.20;71.70
148;DHT22;142;50.652;12.216;2022-09-01T04:50:45;13.20;71.80
148;DHT22;142;50.652;12.216;2022-09-01T04:53:14;13.20;71.80
148;DHT22;142;50.652;12.216;2022-09-01T04:55:43;13.30;71.90
148;DHT22;142;50.652;12.216;2022-09-01T04:58:13;13.30;71.70
148;DHT22;142;50.652;12.216;2022-09-01T05:00:43;13.30;71.50
148;DHT22;142;50.652;12.216;2022-09-01T05:03:13;13.30;71.70
148;DHT22;142;50.652;12.216;2022-09-01T05:05:44;13.30;71.50
148;DHT22;142;50.652;12.216;2022-09-01T05:08:13;13.30;71.70
148;DHT22;142;50.652;12.216;2022-09-01T05:10:43;13.30;71.80
148;DHT22;142;50.652;12.216;2022-09-01T05:13:12;13.40;72.00
148;DHT22;142;50.652;12.216;2022-09-01T05:15:43;13.60;72.00
148;DHT22;142;50.652;12.216;2022-09-01T05:18:13;13.70;71.80
148;DHT22;142;50.652;12.216;2022-09-01T05:20:44;13.80;71.30
148;DHT22;142;50.652;12.216;2022-09-01T05:23:12;13.80;71.00
148;DHT22;142;50.652;12.216;2022-09-01T05:25:45;13.80;70.60
148;DHT22;142;50.652;12.216;2022-09-01T05:28:15;13.90;70.40
148;DHT22;142;50.652;12.216;2022-09-01T05:30:44;13.90;70.30
148;DHT22;142;50.652;12.216;2022-09-01T05:33:13;13.90;70.10
148;DHT22;142;50.652;12.216;2022-09-01T05:35:50;14.00;70.10
148;DHT22;142;50.652;12.216;2022-09-01T05:38:18;14.00;70.00
148;DHT22;142;50.652;12.216;2022-09-01T05:40:54;14.10;69.70
148;DHT22;142;50.652;12.216;2022-09-01T05:43:22;14.20;69.50
148;DHT22;142;50.652;12.216;2022-09-01T05:45:51;14.20;69.30
148;DHT22;142;50.652;12.216;2022-09-01T05:48:20;14.30;69.20
148;DHT22;142;50.652;12.216;2022-09-01T05:50:50;14.40;68.80
148;DHT22;142;50.652;12.216;2022-09-01T05:53:21;14.50;68.60
148;DHT22;142;50.652;12.216;2022-09-01T05:55:51;14.50;68.20
148;DHT22;142;50.652;12.216;2022-09-01T05:58:22;14.50;67.90
148;DHT22;142;50.652;12.216;2022-09-01T06:00:52;14.60;68.00
148;DHT22;142;50.652;12.216;2022-09-01T06:03:21;14.70;67.80
148;DHT22;142;50.652;12.216;2022-09-01T06:05:50;14.70;68.00
148;DHT22;142;50.652;12.216;2022-09-01T06:08:20;14.70;67.90
148;DHT22;142;50.652;12.216;2022-09-01T06:10:47;14.70;67.60
148;DHT22;142;50.652;12.216;2022-09-01T06:13:15;14.70;68.00
148;DHT22;142;50.652;12.216;2022-09-01T06:15:47;14.80;68.40
148;DHT22;142;50.652;12.216;2022-09-01T06:18:15;15.00;68.30
148;DHT22;142;50.652;12.216;2022-09-01T06:20:45;15.10;67.70
148;DHT22;142;50.652;12.216;2022-09-01T06:23:15;15.20;67.80
148;DHT22;142;50.652;12.216;2022-09-01T06:25:44;15.30;67.80
148;DHT22;142;50.652;12.216;2022-09-01T06:28:12;15.50;67.50
148;DHT22;142;50.652;12.216;2022-09-01T06:30:40;15.50;66.70
148;DHT22;142;50.652;12.216;2022-09-01T06:33:11;15.50;67.00
148;DHT22;142;50.652;12.216;2022-09-01T06:35:39;15.60;67.00
148;DHT22;142;50.652;12.216;2022-09-01T06:38:13;15.60;67.00
148;DHT22;142;50.652;12.216;2022-09-01T06:40:44;15.60;66.30
148;DHT22;142;50.652;12.216;2022-09-01T06:43:12;15.70;66.70
148;DHT22;142;50.652;12.216;2022-09-01T06:45:42;15.90;66.70
148;DHT22;142;50.652;12.216;2022-09-01T06:48:11;16.10;65.90
148;DHT22;142;50.652;12.216;2022-09-01T06:50:41;16.00;65.30
148;DHT22;142;50.652;12.216;2022-09-01T06:53:08;16.10;65.60
148;DHT22;142;50.652;12.216;2022-09-01T06:55:40;16.20;65.20
148;DHT22;142;50.652;12.216;2022-09-01T06:58:09;16.10;65.30
148;DHT22;142;50.652;12.216;2022-09-01T07:00:40;16.10;65.50
148;DHT22;142;50.652;12.216;2022-09-01T07:03:09;16.10;65.60
148;DHT22;142;50.652;12.216;2022-09-01T07:05:39;16.20;65.70
148;DHT22;142;50.652;12.216;2022-09-01T07:08:08;16.20;65.60
148;DHT22;142;50.652;12.216;2022-09-01T07:10:43;16.30;65.50
148;DHT22;142;50.652;12.216;2022-09-01T07:13:12;16.40;65.20
148;DHT22;142;50.652;12.216;2022-09-01T07:15:45;16.40;65.20
148;DHT22;142;50.652;12.216;2022-09-01T07:18:48;16.50;64.90
148;DHT22;142;50.652;12.216;2022-09-01T07:21:16;16.60;65.10
148;DHT22;142;50.652;12.216;2022-09-01T07:23:44;16.60;65.10
148;DHT22;142;50.652;12.216;2022-09-01T07:26:13;16.70;65.10
148;DHT22;142;50.652;12.216;2022-09-01T07:28:44;16.70;64.70
148;DHT22;142;50.652;12.216;2022-09-01T07:31:17;16.90;64.50
148;DHT22;142;50.652;12.216;2022-09-01T07:33:48;17.00;64.20
148;DHT22;142;50.652;12.216;2022-09-01T07:36:15;17.10;63.60
148;DHT22;142;50.652;12.216;2022-09-01T07:38:44;17.20;63.70
148;DHT22;142;50.652;12.216;2022-09-01T07:41:15;17.30;63.30
148;DHT22;142;50.652;12.216;2022-09-01T07:43:42;17.30;63.20
148;DHT22;142;50.652;12.216;2022-09-01T07:46:10;17.30;62.80
148;DHT22;142;50.652;12.216;2022-09-01T07:48:38;17.40;63.10
148;DHT22;142;50.652;12.216;2022-09-01T07:51:05;17.50;62.50
148;DHT22;142;50.652;12.216;2022-09-01T07:53:34;17.60;62.70
148;DHT22;142;50.652;12.216;2022-09-01T07:56:06;17.70;63.00
148;DHT22;142;50.652;12.216;2022-09-01T07:58:36;17.90;62.40
148;DHT22;142;50.652;12.216;2022-09-01T08:01:06;18.00;62.10
148;DHT22;142;50.652;12.216;2022-09-01T08:03:33;18.00;61.10
148;DHT22;142;50.652;12.216;2022-09-01T08:06:06;18.00;61.30
148;DHT22;142;50.652;12.216;2022-09-01T08:08:34;18.10;61.20
148;DHT22;142;50.652;12.216;2022-09-01T08:11:02;18.20;61.00
148;DHT22;142;50.652;12.216;2022-09-01T08:13:29;18.40;60.70
148;DHT22;142;50.652;12.216;2022-09-01T08:15:58;18.30;60.00
148;DHT22;142;50.652;12.216;2022-09-01T08:18:29;18.30;60.20
148;DHT22;142;50.652;12.216;2022-09-01T08:20:56;18.40;60.50
148;DHT22;142;50.652;12.216;2022-09-01T08:23:23;18.60;58.50
148;DHT22;142;50.652;12.216;2022-09-01T08:25:52;18.80;56.50
148;DHT22;142;50.652;12.216;2022-09-01T08:28:19;18.90;55.30
148;DHT22;142;50.652;12.216;2022-09-01T08:30:47;19.10;55.00
148;DHT22;142;50.652;12.216;2022-09-01T08:33:15;19.30;55.00
148;DHT22;142;50.652;12.216;2022-09-01T08:35:45;19.50;54.60
148;DHT22;142;50.652;12.216;2022-09-01T08:38:13;19.50;52.90
148;DHT22;142;50.652;12.216;2022-09-01T08:40:41;19.60;53.50
148;DHT22;142;50.652;12.216;2022-09-01T08:43:16;19.70;53.50
148;DHT22;142;50.652;12.216;2022-09-01T08:45:47;19.80;53.30
148;DHT22;142;50.652;12.216;2022-09-01T08:48:18;19.90;52.90
148;DHT22;142;50.652;12.216;2022-09-01T08:50:49;20.10;52.90
148;DHT22;142;50.652;12.216;2022-09-01T08:53:22;20.10;52.70
148;DHT22;142;50.652;12.216;2022-09-01T08:55:55;20.20;54.00
148;DHT22;142;50.652;12.216;2022-09-01T08:58:24;20.20;54.70
148;DHT22;142;50.652;12.216;2022-09-01T09:00:55;20.40;54.80
148;DHT22;142;50.652;12.216;2022-09-01T09:03:33;20.50;55.00
148;DHT22;142;50.652;12.216;2022-09-01T09:06:10;20.60;56.80
148;DHT22;142;50.652;12.216;2022-09-01T09:08:51;20.60;63.80
148;DHT22;142;50.652;12.216;2022-09-01T09:14:26;20.70;73.30
148;DHT22;142;50.652;12.216;2022-09-01T09:16:56;20.80;73.10
148;DHT22;142;50.652;12.216;2022-09-01T09:19:28;20.80;83.70
148;DHT22;142;50.652;12.216;2022-09-01T09:21:58;20.90;84.10
148;DHT22;142;50.652;12.216;2022-09-01T09:24:29;21.10;84.10
148;DHT22;142;50.652;12.216;2022-09-01T09:27:16;21.20;83.70
148;DHT22;142;50.652;12.216;2022-09-01T09:29:45;21.30;83.20
148;DHT22;142;50.652;12.216;2022-09-01T09:32:11;21.30;83.60
148;DHT22;142;50.652;12.216;2022-09-01T09:34:41;21.30;83.30
148;DHT22;142;50.652;12.216;2022-09-01T09:37:23;21.30;83.60
148;DHT22;142;50.652;12.216;2022-09-01T09:40:07;21.20;83.50
148;DHT22;142;50.652;12.216;2022-09-01T09:42:36;21.20;82.70
148;DHT22;142;50.652;12.216;2022-09-01T09:45:12;21.30;82.40
148;DHT22;142;50.652;12.216;2022-09-01T09:47:44;21.40;82.30
148;DHT22;142;50.652;12.216;2022-09-01T09:50:25;21.50;81.80
148;DHT22;142;50.652;12.216;2022-09-01T09:53:14;21.60;81.10
148;DHT22;142;50.652;12.216;2022-09-01T09:55:55;21.80;80.40
148;DHT22;142;50.652;12.216;2022-09-01T09:58:25;21.90;81.00
148;DHT22;142;50.652;12.216;2022-09-01T10:01:04;22.10;79.70
148;DHT22;142;50.652;12.216;2022-09-01T10:03:40;22.30;79.20
148;DHT22;142;50.652;12.216;2022-09-01T10:06:28;22.40;77.30
148;DHT22;142;50.652;12.216;2022-09-01T10:08:56;22.40;76.80
148;DHT22;142;50.652;12.216;2022-09-01T10:11:27;22.40;75.20
148;DHT22;142;50.652;12.216;2022-09-01T10:13:55;22.40;74.70
148;DHT22;142;50.652;12.216;2022-09-01T10:16:26;22.30;74.60
148;DHT22;142;50.652;12.216;2022-09-01T10:18:56;22.40;75.20
148;DHT22;142;50.652;12.216;2022-09-01T10:21:31;22.50;75.30
148;DHT22;142;50.652;12.216;2022-09-01T10:23:59;22.60;76.10
148;DHT22;142;50.652;12.216;2022-09-01T10:26:31;22.70;76.60
148;DHT22;142;50.652;12.216;2022-09-01T10:29:05;22.70;77.80
148;DHT22;142;50.652;12.216;2022-09-01T10:31:34;22.50;77.60
148;DHT22;142;50.652;12.216;2022-09-01T10:34:03;22.70;76.00
148;DHT22;142;50.652;12.216;2022-09-01T10:36:33;22.70;75.90
148;DHT22;142;50.652;12.216;2022-09-01T10:39:01;22.70;74.60
148;DHT22;142;50.652;12.216;2022-09-01T10:41:50;22.60;74.90
148;DHT22;142;50.652;12.216;2022-09-01T10:44:23;22.60;75.80
148;DHT22;142;50.652;12.216;2022-09-01T10:46:56;22.60;76.00
148;DHT22;142;50.652;12.216;2022-09-01T10:49:58;22.70;75.10
148;DHT22;142;50.652;12.216;2022-09-01T10:52:54;22.70;76.10
148;DHT22;142;50.652;12.216;2022-09-01T10:58:34;22.40;76.80
148;DHT22;142;50.652;12.216;2022-09-01T11:01:06;22.30;76.50
148;DHT22;142;50.652;12.216;2022-09-01T11:09:24;22.10;74.80
148;DHT22;142;50.652;12.216;2022-09-01T11:15:00;22.10;73.10
148;DHT22;142;50.652;12.216;2022-09-01T11:17:29;21.90;73.90
148;DHT22;142;50.652;12.216;2022-09-01T11:20:06;21.70;72.20
148;DHT22;142;50.652;12.216;2022-09-01T11:22:40;21.70;73.10
148;DHT22;142;50.652;12.216;2022-09-01T11:25:30;21.80;71.80
148;DHT22;142;50.652;12.216;2022-09-01T11:30:51;21.90;72.40
148;DHT22;142;50.652;12.216;2022-09-01T11:33:37;22.10;72.40
148;DHT22;142;50.652;12.216;2022-09-01T11:36:13;22.20;72.00
148;DHT22;142;50.652;12.216;2022-09-01T11:38:46;22.30;72.00
148;DHT22;142;50.652;12.216;2022-09-01T11:41:24;22.30;71.90
148;DHT22;142;50.652;12.216;2022-09-01T11:43:55;22.40;71.30
148;DHT22;142;50.652;12.216;2022-09-01T11:46:26;22.70;69.60
148;DHT22;142;50.652;12.216;2022-09-01T11:48:56;22.80;69.30
148;DHT22;142;50.652;12.216;2022-09-01T11:51:24;22.90;69.00
148;DHT22;142;50.652;12.216;2022-09-01T11:53:52;23.10;68.90
148;DHT22;142;50.652;12.216;2022-09-01T11:56:27;23.20;68.70
148;DHT22;142;50.652;12.216;2022-09-01T11:58:55;23.20;67.70
148;DHT22;142;50.652;12.216;2022-09-01T12:01:31;23.00;68.50
148;DHT22;142;50.652;12.216;2022-09-01T12:04:18;23.00;67.50
148;DHT22;142;50.652;12.216;2022-09-01T12:06:52;22.60;68.50
148;DHT22;142;50.652;12.216;2022-09-01T12:09:19;22.70;68.90
148;DHT22;142;50.652;12.216;2022-09-01T12:11:48;22.70;67.80
148;DHT22;142;50.652;12.216;2022-09-01T12:14:21;22.90;68.30
148;DHT22;142;50.652;12.216;2022-09-01T12:16:57;22.80;67.80
148;DHT22;142;50.652;12.216;2022-09-01T12:19:27;22.80;66.80
148;DHT22;142;50.652;12.216;2022-09-01T12:22:02;23.00;67.20
148;DHT22;142;50.652;12.216;2022-09-01T12:24:33;23.30;66.70
148;DHT22;142;50.652;12.216;2022-09-01T12:27:05;23.50;65.20
148;DHT22;142;50.652;12.216;2022-09-01T12:29:32;23.50;65.00
148;DHT22;142;50.652;12.216;2022-09-01T12:32:00;23.60;65.30
148;DHT22;142;50.652;12.216;2022-09-01T12:34:37;23.50;65.00
148;DHT22;142;50.652;12.216;2022-09-01T12:37:08;23.50;65.70
148;DHT22;142;50.652;12.216;2022-09-01T12:39:37;23.50;66.70
148;DHT22;142;50.652;12.216;2022-09-01T12:42:11;23.40;66.90
148;DHT22;142;50.652;12.216;2022-09-01T12:44:46;23.30;68.60
148;DHT22;142;50.652;12.216;2022-09-01T12:47:45;23.30;68.80
148;DHT22;142;50.652;12.216;2022-09-01T12:50:45;23.20;68.30
148;DHT22;142;50.652;12.216;2022-09-01T12:53:22;23.20;67.30
148;DHT22;142;50.652;12.216;2022-09-01T12:55:59;23.00;68.00
148;DHT22;142;50.652;12.216;2022-09-01T12:58:28;23.10;67.20
148;DHT22;142;50.652;12.216;2022-09-01T13:00:59;23.00;66.10
148;DHT22;142;50.652;12.216;2022-09-01T13:03:27;23.00;66.70
148;DHT22;142;50.652;12.216;2022-09-01T13:05:56;23.10;66.60
148;DHT22;142;50.652;12.216;2022-09-01T13:08:26;23.20;66.80
148;DHT22;142;50.652;12.216;2022-09-01T13:10:56;23.20;66.40
148;DHT22;142;50.652;12.216;2022-09-01T13:13:24;23.30;65.50
148;DHT22;142;50.652;12.216;2022-09-01T13:15:55;23.30;65.70
148;DHT22;142;50.652;12.216;2022-09-01T13:18:24;23.40;66.30
148;DHT22;142;50.652;12.216;2022-09-01T13:20:52;23.50;66.30
148;DHT22;142;50.652;12.216;2022-09-01T13:23:20;23.50;67.10
148;DHT22;142;50.652;12.216;2022-09-01T13:25:47;23.50;66.80
148;DHT22;142;50.652;12.216;2022-09-01T13:28:16;23.40;68.10
148;DHT22;142;50.652;12.216;2022-09-01T13:30:44;23.20;69.60
148;DHT22;142;50.652;12.216;2022-09-01T13:33:18;23.20;69.60
148;DHT22;142;50.652;12.216;2022-09-01T13:35:46;22.80;70.20
148;DHT22;142;50.652;12.216;2022-09-01T13:38:14;22.70;71.50
148;DHT22;142;50.652;12.216;2022-09-01T13:40:42;22.60;71.70
148;DHT22;142;50.652;12.216;2022-09-01T13:43:10;22.50;71.10
148;DHT22;142;50.652;12.216;2022-09-01T13:45:38;22.30;71.80
148;DHT22;142;50.652;12.216;2022-09-01T13:48:06;22.30;72.20
148;DHT22;142;50.652;12.216;2022-09-01T13:50:36;22.30;72.10
148;DHT22;142;50.652;12.216;2022-09-01T13:53:04;22.30;72.40
148;DHT22;142;50.652;12.216;2022-09-01T13:55:33;22.30;72.70
148;DHT22;142;50.652;12.216;2022-09-01T13:58:00;22.40;72.60
148;DHT22;142;50.652;12.216;2022-09-01T14:00:30;22.50;72.40
148;DHT22;142;50.652;12.216;2022-09-01T14:03:02;22.40;72.50
148;DHT22;142;50.652;12.216;2022-09-01T14:05:35;22.40;72.80
148;DHT22;142;50.652;12.216;2022-09-01T14:08:04;22.60;72.20
148;DHT22;142;50.652;12.216;2022-09-01T14:10:31;22.70;71.50
148;DHT22;142;50.652;12.216;2022-09-01T14:12:59;22.70;71.60
148;DHT22;142;50.652;12.216;2022-09-01T14:15:27;22.70;71.80
148;DHT22;142;50.652;12.216;2022-09-01T14:17:55;22.70;71.30
148;DHT22;142;50.652;12.216;2022-09-01T14:20:26;22.70;72.10
148;DHT22;142;50.652;12.216;2022-09-01T14:22:57;22.80;71.70
148;DHT22;142;50.652;12.216;2022-09-01T14:25:24;23.00;71.00
148;DHT22;142;50.652;12.216;2022-09-01T14:27:52;23.10;70.70
148;DHT22;142;50.652;12.216;2022-09-01T14:30:22;23.10;70.70
148;DHT22;142;50.652;12.216;2022-09-01T14:32:50;23.20;70.90
148;DHT22;142;50.652;12.216;2022-09-01T14:35:19;23.30;69.60
148;DHT22;142;50.652;12.216;2022-09-01T14:37:48;23.40;69.40
148;DHT22;142;50.652;12.216;2022-09-01T14:40:18;23.50;68.40
148;DHT22;142;50.652;12.216;2022-09-01T14:42:48;23.60;68.30
148;DHT22;142;50.652;12.216;2022-09-01T14:45:16;23.60;67.40
148;DHT22;142;50.652;12.216;2022-09-01T14:47:44;23.70;67.50
148;DHT22;142;50.652;12.216;2022-09-01T14:50:12;23.70;67.40
148;DHT22;142;50.652;12.216;2022-09-01T14:52:41;23.60;66.20
148;DHT22;142;50.652;12.216;2022-09-01T14:55:09;23.60;66.70
148;DHT22;142;50.652;12.216;2022-09-01T14:57:38;23.70;66.80
148;DHT22;142;50.652;12.216;2022-09-01T15:00:06;23.70;65.50
148;DHT22;142;50.652;12.216;2022-09-01T15:02:37;23.80;65.50
148;DHT22;142;50.652;12.216;2022-09-01T15:05:04;23.90;65.80
148;DHT22;142;50.652;12.216;2022-09-01T15:07:32;24.00;64.50
148;DHT22;142;50.652;12.216;2022-09-01T15:09:59;24.00;64.50
148;DHT22;142;50.652;12.216;2022-09-01T15:12:26;24.00;63.50
148;DHT22;142;50.652;12.216;2022-09-01T15:14:57;23.90;63.60
148;DHT22;142;50.652;12.216;2022-09-01T15:17:24;23.80;64.20
148;DHT22;142;50.652;12.216;2022-09-01T15:19:52;23.80;63.50
148;DHT22;142;50.652;12.216;2022-09-01T15:22:20;23.50;63.30
148;DHT22;142;50.652;12.216;2022-09-01T15:24:47;23.20;64.70
148;DHT22;142;50.652;12.216;2022-09-01T15:27:14;23.10;64.60
148;DHT22;142;50.652;12.216;2022-09-01T15:29:42;23.00;64.50
148;DHT22;142;50.652;12.216;2022-09-01T15:32:14;23.10;64.60
148;DHT22;142;50.652;12.216;2022-09-01T15:34:42;23.20;64.90
148;DHT22;142;50.652;12.216;2022-09-01T15:37:09;23.20;64.80
148;DHT22;142;50.652;12.216;2022-09-01T15:39:37;23.30;64.20
148;DHT22;142;50.652;12.216;2022-09-01T15:42:04;23.30;63.90
148;DHT22;142;50.652;12.216;2022-09-01T15:44:32;23.30;63.40
148;DHT22;142;50.652;12.216;2022-09-01T15:47:00;23.20;63.10
148;DHT22;142;50.652;12.216;2022-09-01T15:49:32;23.20;63.20
148;DHT22;142;50.652;12.216;2022-09-01T15:51:59;23.20;63.90
148;DHT22;142;50.652;12.216;2022-09-01T15:54:26;23.10;63.40
148;DHT22;142;50.652;12.216;2022-09-01T15:56:53;23.10;63.00
148;DHT22;142;50.652;12.216;2022-09-01T15:59:21;23.00;64.20
148;DHT22;142;50.652;12.216;2022-09-01T16:01:49;23.10;64.40
148;DHT22;142;50.652;12.216;2022-09-01T16:04:19;23.10;63.60
148;DHT22;142;50.652;12.216;2022-09-01T16:06:52;23.00;63.90
148;DHT22;142;50.652;12.216;2022-09-01T16:09:21;22.90;64.00
148;DHT22;142;50.652;12.216;2022-09-01T16:11:51;22.90;64.60
148;DHT22;142;50.652;12.216;2022-09-01T16:14:18;22.90;64.40
148;DHT22;142;50.652;12.216;2022-09-01T16:16:52;22.90;64.00
148;DHT22;142;50.652;12.216;2022-09-01T16:19:29;22.80;64.00
148;DHT22;142;50.652;12.216;2022-09-01T16:22:08;22.80;63.90
148;DHT22;142;50.652;12.216;2022-09-01T16:24:40;22.80;63.90
148;DHT22;142;50.652;12.216;2022-09-01T16:27:08;22.80;64.20
148;DHT22;142;50.652;12.216;2022-09-01T16:29:43;22.80;63.90
148;DHT22;142;50.652;12.216;2022-09-01T16:32:11;22.80;64.30
148;DHT22;142;50.652;12.216;2022-09-01T16:34:39;22.80;64.60
148;DHT22;142;50.652;12.216;2022-09-01T16:37:25;22.80;63.90
148;DHT22;142;50.652;12.216;2022-09-01T16:40:03;22.70;63.50
148;DHT22;142;50.652;12.216;2022-09-01T16:42:37;22.80;64.40
148;DHT22;142;50.652;12.216;2022-09-01T16:45:12;22.70;64.20
148;DHT22;142;50.652;12.216;2022-09-01T16:47:53;22.80;63.80
148;DHT22;142;50.652;12.216;2022-09-01T16:50:31;22.80;64.20
148;DHT22;142;50.652;12.216;2022-09-01T16:53:09;22.80;64.90
148;DHT22;142;50.652;12.216;2022-09-01T16:55:51;23.00;65.10
148;DHT22;142;50.652;12.216;2022-09-01T16:58:25;23.20;64.60